Time;durP1;ratioP1;P1;durP2;ratioP2;P2;SDS_P1;SDS_P2;PMS_P1;PMS_P2;Temp;Humidity;BMP_temperature;BMP_pressure;BME280_temperature;BME280_humidity;BME280_pressure;Samples;Min_cycle;Max_cycle;Signal;HPM_P1;HPM_P2
2023/03/29 00:01:29;;;;;;;2.77;1.70;;;-1.50;99.90;;;;;;5051967;28;20606;-82
2023/03/29 00:03:56;;;;;;;2.80;2.37;;;-1.10;99.90;;;;;;5053142;28;20182;-83
2023/03/29 00:06:21;;;;;;;1.80;1.70;;;-1.30;99.90;;;;;;5051937;28;20213;-81
2023/03/29 00:08:53;;;;;;;9.23;2.33;;;-1.40;99.90;;;;;;5035027;28;20180;-82
2023/03/29 00:11:21;;;;;;;1.70;1.60;;;-1.30;99.90;;;;;;5053010;28;20171;-82
2023/03/29 00:13:49;;;;;;;1.10;1.10;;;-1.40;99.90;;;;;;5038530;28;20180;-82
2023/03/29 00:16:14;;;;;;;2.50;1.87;;;-1.30;99.90;;;;;;5054958;28;20176;-82
2023/03/29 00:18:40;;;;;;;1.87;1.77;;;-1.30;99.90;;;;;;5056455;28;20226;-82
2023/03/29 00:21:06;;;;;;;2.37;1.60;;;-1.30;99.90;;;;;;5038118;28;20283;-82
2023/03/29 00:23:32;;;;;;;1.60;1.50;;;-1.30;99.90;;;;;;5054824;28;20188;-81
2023/03/29 00:25:58;;;;;;;1.03;1.03;;;-1.30;99.90;;;;;;5037963;28;20228;-82
2023/03/29 00:28:23;;;;;;;2.70;2.50;;;-1.30;99.90;;;;;;5054759;28;20240;-82
2023/03/29 00:30:50;;;;;;;1.53;1.43;;;;;;;;;;5055748;28;20192;-83
2023/03/29 00:33:19;;;;;;;0.87;0.87;;;-1.30;99.90;;;;;;5055841;28;20214;-82
2023/03/29 00:35:47;;;;;;;1.57;1.47;;;;;;;;;;5054472;28;20180;-82
2023/03/29 00:38:13;;;;;;;2.43;1.60;;;-1.30;99.90;;;;;;5055920;28;20185;-82
2023/03/29 00:40:45;;;;;;;1.60;1.60;;;-1.20;99.90;;;;;;5054462;28;20257;-82
2023/03/29 00:43:13;;;;;;;1.73;1.40;;;-0.90;99.90;;;;;;5055900;28;20201;-81
2023/03/29 00:45:39;;;;;;;8.80;1.60;;;-1.20;99.90;;;;;;5037916;28;20211;-82
2023/03/29 00:48:09;;;;;;;1.40;1.40;;;-1.20;99.90;;;;;;5055427;28;20230;-82
2023/03/29 00:50:39;;;;;;;3.13;1.93;;;-1.20;99.90;;;;;;5064973;28;20172;-80
2023/03/29 00:53:18;;;;;;;2.23;2.03;;;-1.20;99.90;;;;;;5055049;28;20246;-81
2023/03/29 00:56:03;;;;;;;2.00;1.77;;;-1.20;99.90;;;;;;5055186;28;20689;-81
2023/03/29 00:58:41;;;;;;;4.07;1.73;;;-1.20;99.90;;;;;;5055348;28;20158;-82
2023/03/29 01:01:12;;;;;;;1.47;1.47;;;-1.20;99.90;;;;;;5055227;28;20171;-83
2023/03/29 01:03:45;;;;;;;1.67;1.57;;;-1.20;99.90;;;;;;5055421;28;20170;-82
2023/03/29 01:06:13;;;;;;;1.37;1.37;;;-1.10;99.90;;;;;;5053668;28;20212;-82
2023/03/29 01:08:44;;;;;;;1.30;1.20;;;-0.70;99.90;;;;;;5053879;28;20617;-82
2023/03/29 01:11:16;;;;;;;1.40;1.40;;;-1.00;99.90;;;;;;5054733;28;20684;-82
2023/03/29 01:14:18;;;;;;;2.37;2.23;;;-1.10;99.90;;;;;;5055197;28;20207;-82
2023/03/29 01:16:45;;;;;;;1.00;1.00;;;-1.10;99.60;;;;;;5022969;28;20678;-80
2023/03/29 01:19:17;;;;;;;3.07;1.63;;;-1.10;98.80;;;;;;5054806;28;20626;-80
2023/03/29 01:21:50;;;;;;;2.93;1.83;;;-1.10;97.20;;;;;;5053729;28;20178;-81
2023/03/29 01:24:43;;;;;;;2.17;1.97;;;-1.00;97.50;;;;;;5052778;28;20176;-82
2023/03/29 01:27:21;;;;;;;1.20;1.20;;;-1.10;97.40;;;;;;5053468;28;20324;-82
2023/03/29 01:30:02;;;;;;;1.47;1.37;;;-1.10;96.80;;;;;;5054953;28;20165;-81
2023/03/29 01:32:44;;;;;;;2.80;1.10;;;-1.10;96.70;;;;;;5054829;28;20252;-82
2023/03/29 01:35:14;;;;;;;3.27;1.30;;;-1.10;95.70;;;;;;5054423;28;20169;-83
2023/03/29 01:37:50;;;;;;;1.53;1.53;;;-1.10;96.30;;;;;;5053358;28;20249;-80
2023/03/29 01:40:16;;;;;;;0.83;0.83;;;-1.20;96.20;;;;;;5054358;28;20220;-81
2023/03/29 01:43:03;;;;;;;1.47;1.40;;;-1.20;95.50;;;;;;5036623;28;20194;-81
2023/03/29 01:45:45;;;;;;;1.20;1.20;;;-1.20;95.50;;;;;;5053227;28;20218;-81
2023/03/29 01:48:26;;;;;;;1.23;1.23;;;-1.20;95.10;;;;;;5054343;28;20176;-81
2023/03/29 01:50:59;;;;;;;1.17;1.17;;;-1.20;94.90;;;;;;5053096;28;20267;-81
2023/03/29 01:53:45;;;;;;;1.63;1.27;;;-1.30;95.00;;;;;;5053136;28;20211;-81
2023/03/29 01:56:15;;;;;;;3.10;2.53;;;-1.00;95.50;;;;;;5052513;28;20219;-81
2023/03/29 01:58:53;;;;;;;1.73;1.43;;;-1.30;95.50;;;;;;5052925;28;20267;-81
2023/03/29 02:01:24;;;;;;;1.30;1.30;;;-1.10;95.70;;;;;;5054095;28;20650;-81
2023/03/29 02:03:53;;;;;;;0.97;0.97;;;-1.30;94.90;;;;;;5054226;28;20164;-81
2023/03/29 02:06:25;;;;;;;1.13;1.13;;;-0.20;95.50;;;;;;5052608;28;20207;-80
2023/03/29 02:08:53;;;;;;;1.30;1.20;;;-1.40;95.30;;;;;;5054116;28;20176;-81
2023/03/29 02:11:19;;;;;;;1.30;1.30;;;-1.00;95.20;;;;;;5052550;28;20540;-81
2023/03/29 02:13:45;;;;;;;1.60;1.50;;;-1.50;95.50;;;;;;5036257;28;20218;-81
2023/03/29 02:16:13;;;;;;;2.93;2.17;;;-1.40;95.20;;;;;;5052927;28;20188;-81
2023/03/29 02:18:42;;;;;;;2.97;1.90;;;-1.60;95.10;;;;;;5052116;28;20225;-81
2023/03/29 02:21:13;;;;;;;1.10;1.10;;;-1.60;95.20;;;;;;5053617;28;20244;-82
2023/03/29 02:23:45;;;;;;;1.30;1.20;;;-1.60;95.40;;;;;;5052618;28;20186;-81
2023/03/29 02:26:13;;;;;;;0.90;0.90;;;-1.60;95.20;;;;;;5053161;28;20638;-81
2023/03/29 02:28:39;;;;;;;1.30;1.30;;;-1.10;96.30;;;;;;5019374;28;20197;-80
2023/03/29 02:31:33;;;;;;;1.40;1.30;;;0.30;96.80;;;;;;5053566;28;20187;-81
2023/03/29 02:34:08;;;;;;;1.20;1.10;;;-1.80;96.10;;;;;;5053998;28;20618;-81
2023/03/29 02:36:46;;;;;;;1.13;1.13;;;-1.80;96.10;;;;;;5052334;28;20186;-80
2023/03/29 02:39:14;;;;;;;1.27;1.17;;;-1.80;96.40;;;;;;5053492;28;20169;-80
2023/03/29 02:41:43;;;;;;;1.63;1.63;;;-1.90;96.60;;;;;;5053302;28;20639;-80
2023/03/29 02:44:15;;;;;;;1.23;1.23;;;-0.90;97.20;;;;;;5053298;28;20181;-80
2023/03/29 02:46:42;;;;;;;4.00;1.70;;;-1.90;97.00;;;;;;5053687;28;20210;-81
2023/03/29 02:49:11;;;;;;;1.30;1.30;;;-1.80;97.30;;;;;;5053377;28;20182;-80
2023/03/29 02:51:37;;;;;;;1.30;1.20;;;-1.90;97.40;;;;;;5056761;28;20184;-81
2023/03/29 02:54:17;;;;;;;2.73;1.83;;;-1.90;97.90;;;;;;5062167;28;20214;-83
2023/03/29 02:56:46;;;;;;;1.37;1.37;;;-1.90;97.60;;;;;;5061890;28;20178;-81
2023/03/29 02:59:12;;;;;;;1.30;1.30;;;-1.20;98.10;;;;;;5061482;28;20176;-82
2023/03/29 03:01:41;;;;;;;1.20;1.20;;;-2.00;97.90;;;;;;5070362;28;20211;-81
2023/03/29 03:04:08;;;;;;;1.43;1.40;;;-1.60;98.10;;;;;;5077208;28;20211;-81
2023/03/29 03:06:35;;;;;;;3.87;1.83;;;-1.70;98.00;;;;;;5077905;28;20195;-82
2023/03/29 03:09:01;;;;;;;1.33;1.30;;;-0.50;98.60;;;;;;5077812;28;20176;-80
2023/03/29 03:11:27;;;;;;;1.10;1.10;;;-2.00;98.50;;;;;;5074114;28;20176;-80
2023/03/29 03:13:52;;;;;;;2.43;2.23;;;-2.00;98.40;;;;;;5065626;28;20189;-81
2023/03/29 03:16:18;;;;;;;2.70;2.50;;;-1.10;99.30;;;;;;5034531;28;20198;-81
2023/03/29 03:18:44;;;;;;;1.63;1.53;;;-2.10;98.90;;;;;;5060592;28;20281;-80
2023/03/29 03:21:10;;;;;;;1.40;1.40;;;-2.00;98.60;;;;;;5077676;28;20283;-85
2023/03/29 03:23:36;;;;;;;1.20;1.20;;;-2.00;98.90;;;;;;5076906;28;20174;-82
2023/03/29 03:26:02;;;;;;;1.60;1.50;;;-2.00;98.80;;;;;;5062604;28;20220;-82
2023/03/29 03:28:27;;;;;;;1.20;1.20;;;-2.00;98.70;;;;;;5036906;28;20187;-82
2023/03/29 03:30:53;;;;;;;1.87;1.60;;;-2.00;98.70;;;;;;5052861;28;20648;-81
2023/03/29 03:33:19;;;;;;;1.43;1.33;;;-2.10;98.90;;;;;;5055030;28;20188;-82
2023/03/29 03:35:46;;;;;;;1.80;1.70;;;;;;;;;;5042376;28;20222;-82
2023/03/29 03:38:12;;;;;;;4.87;1.83;;;-2.10;99.40;;;;;;5032426;28;20561;-86
2023/03/29 03:40:38;;;;;;;2.10;1.30;;;-2.20;99.90;;;;;;5052822;28;20187;-82
2023/03/29 03:43:03;;;;;;;1.27;1.27;;;-2.20;99.90;;;;;;5053194;28;20187;-82
2023/03/29 03:45:30;;;;;;;0.90;0.90;;;-2.20;99.90;;;;;;5053034;28;20198;-81
2023/03/29 03:47:56;;;;;;;1.30;1.30;;;-2.30;99.90;;;;;;5055334;28;20184;-82
2023/03/29 03:50:22;;;;;;;1.67;1.57;;;-1.90;99.90;;;;;;5055974;28;20320;-81
2023/03/29 03:52:48;;;;;;;2.17;1.97;;;-2.30;99.90;;;;;;5046879;28;20278;-81
2023/03/29 03:55:13;;;;;;;1.83;1.63;;;-2.30;99.90;;;;;;5031348;28;20785;-86
2023/03/29 03:57:39;;;;;;;1.33;1.33;;;-2.30;99.90;;;;;;5018832;28;20180;-80
2023/03/29 04:03:01;;;;;;;2.00;1.90;;;;;;;;;;5025782;28;20303;-83
2023/03/29 04:05:26;;;;;;;2.07;1.93;;;-2.30;99.90;;;;;;5034376;28;20649;-82
2023/03/29 04:07:53;;;;;;;2.63;2.17;;;-1.90;99.90;;;;;;5035507;28;20191;-82
2023/03/29 04:10:19;;;;;;;2.40;1.60;;;;;;;;;;5051680;28;20263;-82
2023/03/29 04:12:45;;;;;;;9.70;2.00;;;-2.40;99.90;;;;;;5029662;28;20184;-83
2023/03/29 04:15:11;;;;;;;2.53;1.47;;;-2.40;99.90;;;;;;5052495;28;20180;-82
2023/03/29 04:17:37;;;;;;;3.23;2.03;;;-2.50;99.90;;;;;;5053650;28;20233;-83
2023/03/29 04:20:10;;;;;;;1.50;1.47;;;-1.80;99.90;;;;;;5032826;28;20605;-82
2023/03/29 04:22:37;;;;;;;1.10;1.03;;;-2.40;99.90;;;;;;5054660;28;20182;-83
2023/03/29 04:25:05;;;;;;;2.17;1.70;;;-2.10;99.90;;;;;;5053692;28;20187;-83
2023/03/29 04:27:31;;;;;;;4.30;1.47;;;-2.40;99.90;;;;;;5053793;28;20787;-84
2023/03/29 04:29:57;;;;;;;1.40;1.33;;;-2.10;99.90;;;;;;5051977;28;20185;-82
2023/03/29 04:32:23;;;;;;;3.30;1.97;;;-2.40;99.90;;;;;;5023481;28;20194;-83
2023/03/29 04:34:49;;;;;;;2.03;1.90;;;-2.40;99.90;;;;;;5036577;28;20202;-82
2023/03/29 04:37:20;;;;;;;1.63;1.53;;;-2.30;99.90;;;;;;5035694;28;20263;-83
2023/03/29 04:39:49;;;;;;;3.50;2.40;;;-2.20;99.90;;;;;;5043012;28;20177;-82
2023/03/29 04:42:15;;;;;;;1.43;1.43;;;-2.30;99.90;;;;;;5047306;28;20202;-83
2023/03/29 04:44:42;;;;;;;2.00;1.90;;;-2.30;99.90;;;;;;5052942;28;20219;-81
2023/03/29 04:47:11;;;;;;;5.80;2.40;;;-1.30;99.90;;;;;;5053216;28;20694;-83
2023/03/29 04:49:37;;;;;;;1.83;1.83;;;-1.10;99.90;;;;;;5020998;28;20190;-82
2023/03/29 04:52:03;;;;;;;4.07;1.93;;;-1.80;99.90;;;;;;5053116;28;20269;-81
2023/03/29 04:54:29;;;;;;;1.43;1.07;;;-2.20;99.90;;;;;;5052698;28;20282;-82
2023/03/29 04:56:55;;;;;;;1.23;1.20;;;-2.00;99.90;;;;;;5049335;28;20207;-82
2023/03/29 04:59:21;;;;;;;1.40;1.30;;;-2.10;99.90;;;;;;5038171;28;20636;-84
2023/03/29 05:01:46;;;;;;;1.03;1.03;;;-2.00;99.90;;;;;;5037985;28;20191;-82
2023/03/29 05:04:13;;;;;;;5.60;1.80;;;-2.00;99.90;;;;;;5054013;28;20497;-81
2023/03/29 05:06:39;;;;;;;2.43;1.97;;;-2.00;99.90;;;;;;5054168;28;20204;-81
2023/03/29 05:09:05;;;;;;;3.50;1.80;;;-0.50;99.90;;;;;;5054881;28;20188;-81
2023/03/29 05:11:31;;;;;;;3.20;2.10;;;-1.80;99.90;;;;;;5052911;28;20188;-82
2023/03/29 05:14:01;;;;;;;1.60;1.50;;;-2.00;99.90;;;;;;5053131;28;20186;-83
2023/03/29 05:16:29;;;;;;;1.80;1.67;;;-1.90;99.90;;;;;;5020746;28;20691;-81
2023/03/29 05:18:55;;;;;;;6.27;2.07;;;-1.60;99.90;;;;;;5053939;28;20176;-82
2023/03/29 05:21:22;;;;;;;1.93;1.60;;;-1.60;99.90;;;;;;5021137;28;20188;-82
2023/03/29 05:23:49;;;;;;;1.90;1.70;;;;;;;;;;5053804;28;20181;-81
2023/03/29 05:26:14;;;;;;;2.83;2.57;;;-1.80;99.90;;;;;;5037150;28;20703;-81
2023/03/29 05:28:40;;;;;;;2.90;1.70;;;-1.70;99.90;;;;;;5053227;28;20247;-81
2023/03/29 05:31:07;;;;;;;1.90;1.80;;;-1.60;99.90;;;;;;5036729;28;20275;-81
2023/03/29 05:33:34;;;;;;;2.67;2.47;;;-0.90;99.90;;;;;;5053054;28;20234;-81
2023/03/29 05:36:20;;;;;;;6.37;4.90;;;-1.60;99.90;;;;;;5053635;28;20187;-81
2023/03/29 05:38:46;;;;;;;5.43;4.10;;;-1.60;99.90;;;;;;5055057;28;20178;-80
2023/03/29 05:41:12;;;;;;;6.70;4.03;;;-1.50;99.90;;;;;;5036812;28;20288;-81
2023/03/29 05:43:38;;;;;;;4.40;3.40;;;-1.40;99.90;;;;;;5054064;28;20179;-80
2023/03/29 05:46:06;;;;;;;3.50;2.37;;;-1.40;99.90;;;;;;5053033;28;20273;-80
2023/03/29 05:48:31;;;;;;;3.07;2.13;;;-1.30;99.90;;;;;;5036382;28;20183;-81
2023/03/29 05:50:57;;;;;;;4.90;3.07;;;-1.30;99.90;;;;;;5036278;28;20678;-82
2023/03/29 05:53:25;;;;;;;2.73;2.23;;;-1.20;99.90;;;;;;5054165;28;20210;-82
2023/03/29 05:55:50;;;;;;;1.63;1.53;;;-1.10;99.90;;;;;;5053730;28;20551;-82
2023/03/29 05:58:19;;;;;;;2.23;1.77;;;-1.10;99.90;;;;;;5052713;28;20187;-80
2023/03/29 06:00:48;;;;;;;1.53;1.43;;;-1.10;99.90;;;;;;5053646;28;20229;-82
2023/03/29 06:03:22;;;;;;;2.73;1.80;;;-1.00;99.90;;;;;;5052614;28;20191;-82
2023/03/29 06:05:53;;;;;;;1.27;1.17;;;-1.10;99.90;;;;;;5053625;28;20258;-82
2023/03/29 06:08:19;;;;;;;3.10;1.87;;;-1.00;99.90;;;;;;5053584;28;20170;-81
2023/03/29 06:10:45;;;;;;;3.30;3.03;;;-0.90;99.90;;;;;;5052038;28;20228;-82
2023/03/29 06:13:11;;;;;;;2.27;2.07;;;-0.30;99.90;;;;;;5053785;28;20244;-82
2023/03/29 06:15:37;;;;;;;3.10;2.33;;;-0.80;99.90;;;;;;5053392;28;20188;-82
2023/03/29 06:18:03;;;;;;;2.50;1.83;;;-0.70;99.90;;;;;;5035610;28;20701;-83
2023/03/29 06:20:29;;;;;;;2.40;2.20;;;-0.70;99.90;;;;;;5052629;28;20187;-81
2023/03/29 06:22:54;;;;;;;2.57;1.70;;;-0.70;99.90;;;;;;5051791;28;20640;-81
2023/03/29 06:25:20;;;;;;;6.13;2.90;;;-0.60;99.90;;;;;;5052322;28;20235;-81
2023/03/29 06:27:46;;;;;;;28.10;3.23;;;-0.60;99.90;;;;;;5051985;28;20209;-81
2023/03/29 06:30:14;;;;;;;1.57;1.47;;;-0.10;99.90;;;;;;5035377;28;20282;-81
2023/03/29 06:32:40;;;;;;;2.10;1.53;;;-0.50;99.90;;;;;;5053028;28;20186;-81
2023/03/29 06:35:07;;;;;;;8.90;3.37;;;-0.50;99.90;;;;;;5052218;28;20215;-81
2023/03/29 06:37:33;;;;;;;4.30;2.90;;;-0.50;99.90;;;;;;5052321;28;20231;-80
2023/03/29 06:39:59;;;;;;;1.47;1.30;;;-0.50;99.90;;;;;;5053064;28;20249;-81
2023/03/29 06:42:26;;;;;;;1.60;1.50;;;;;;;;;;5053027;28;20188;-80
2023/03/29 06:44:52;;;;;;;1.87;1.77;;;;;;;;;;5051562;28;20271;-80
2023/03/29 06:47:18;;;;;;;7.30;2.50;;;-0.30;99.90;;;;;;5035431;28;20209;-80
2023/03/29 06:49:43;;;;;;;6.53;3.33;;;-0.20;99.90;;;;;;5051795;28;20528;-80
2023/03/29 06:52:09;;;;;;;2.13;1.93;;;-0.10;99.90;;;;;;5035231;28;20237;-80
2023/03/29 06:54:36;;;;;;;3.80;2.77;;;-0.10;99.90;;;;;;5052138;28;20183;-80
2023/03/29 06:57:04;;;;;;;4.87;2.53;;;0.00;99.90;;;;;;5051262;28;20183;-80
2023/03/29 06:59:29;;;;;;;2.13;1.97;;;0.10;99.90;;;;;;5051881;28;20211;-81
2023/03/29 07:01:55;;;;;;;3.83;2.67;;;0.10;99.90;;;;;;5052700;28;20206;-80
2023/03/29 07:04:23;;;;;;;1.23;1.10;;;0.20;99.90;;;;;;5051737;28;20176;-80
2023/03/29 07:07:00;;;;;;;4.07;2.27;;;0.20;99.90;;;;;;5051489;28;20687;-80
2023/03/29 07:09:28;;;;;;;3.30;2.73;;;0.30;99.90;;;;;;5036590;28;20231;-80
2023/03/29 07:11:55;;;;;;;2.80;1.87;;;0.50;99.90;;;;;;5051401;28;20191;-80
2023/03/29 07:14:21;;;;;;;1.87;1.77;;;0.50;99.90;;;;;;5051820;28;20264;-80
2023/03/29 07:16:47;;;;;;;3.27;2.60;;;0.60;99.90;;;;;;5052444;28;20322;-80
2023/03/29 07:19:14;;;;;;;3.63;2.77;;;0.50;99.90;;;;;;5053010;28;20223;-80
2023/03/29 07:21:39;;;;;;;2.40;2.17;;;0.50;99.90;;;;;;5036131;28;20173;-80
2023/03/29 07:24:05;;;;;;;4.10;2.33;;;0.50;99.90;;;;;;5055527;28;20217;-80
2023/03/29 07:26:31;;;;;;;3.70;2.37;;;0.60;99.90;;;;;;5055445;28;20215;-80
2023/03/29 07:28:57;;;;;;;5.60;2.57;;;0.60;99.90;;;;;;5055257;28;20271;-80
2023/03/29 07:31:23;;;;;;;3.50;1.67;;;0.50;99.90;;;;;;5055626;28;20659;-80
2023/03/29 07:33:51;;;;;;;9.57;2.90;;;0.70;99.90;;;;;;5055120;28;20183;-81
2023/03/29 07:36:18;;;;;;;2.53;1.80;;;0.90;99.90;;;;;;5055439;28;20191;-80
2023/03/29 07:38:45;;;;;;;4.23;2.63;;;0.90;99.80;;;;;;5038836;28;20195;-83
2023/03/29 07:41:11;;;;;;;1.23;1.13;;;0.90;99.50;;;;;;5056466;28;20183;-80
2023/03/29 07:43:36;;;;;;;1.63;1.53;;;1.00;99.60;;;;;;5055398;28;20180;-80
2023/03/29 07:46:04;;;;;;;6.90;2.07;;;1.10;98.70;;;;;;5038583;28;20214;-80
2023/03/29 07:48:31;;;;;;;11.63;1.77;;;1.10;98.40;;;;;;5054871;28;20176;-80
2023/03/29 07:50:56;;;;;;;3.37;2.37;;;1.20;97.90;;;;;;5055220;28;20202;-80
2023/03/29 07:53:22;;;;;;;3.63;1.83;;;1.40;96.60;;;;;;5038561;28;20184;-81
2023/03/29 07:55:49;;;;;;;1.67;1.40;;;1.40;96.10;;;;;;5055055;28;20176;-80
2023/03/29 07:58:15;;;;;;;6.47;2.47;;;1.50;95.10;;;;;;5055150;28;20655;-80
2023/03/29 08:00:42;;;;;;;3.47;2.73;;;1.60;93.80;;;;;;5055134;28;20176;-80
2023/03/29 08:03:11;;;;;;;5.40;2.30;;;1.50;94.00;;;;;;5054648;28;20267;-80
2023/03/29 08:05:37;;;;;;;2.57;2.07;;;1.50;94.10;;;;;;5054789;28;20188;-80
2023/03/29 08:08:03;;;;;;;2.83;1.87;;;1.60;92.80;;;;;;5054370;28;20191;-80
2023/03/29 08:10:29;;;;;;;1.47;1.30;;;1.60;90.70;;;;;;5054842;28;20644;-80
2023/03/29 08:12:55;;;;;;;3.53;2.20;;;1.60;91.30;;;;;;5038110;28;20184;-80
2023/03/29 08:15:21;;;;;;;2.37;1.50;;;1.60;90.50;;;;;;5021813;28;20191;-81
2023/03/29 08:17:47;;;;;;;2.67;1.50;;;1.60;90.20;;;;;;5055649;28;20239;-79
2023/03/29 08:20:17;;;;;;;3.80;1.70;;;1.70;91.00;;;;;;5037863;28;20180;-81
2023/03/29 08:22:43;;;;;;;0.93;0.90;;;1.90;89.90;;;;;;5038554;28;20184;-81
2023/03/29 08:25:09;;;;;;;4.20;1.87;;;2.00;86.90;;;;;;5055806;28;20182;-82
2023/03/29 08:27:36;;;;;;;1.43;1.33;;;2.10;88.40;;;;;;5054744;28;20238;-81
2023/03/29 08:30:03;;;;;;;1.77;1.20;;;2.20;84.80;;;;;;5055784;28;20185;-81
2023/03/29 08:32:28;;;;;;;4.17;1.77;;;2.20;83.30;;;;;;5055871;28;20179;-81
2023/03/29 08:34:54;;;;;;;1.83;1.73;;;2.30;83.90;;;;;;5054302;28;20177;-82
2023/03/29 08:37:20;;;;;;;2.37;1.60;;;2.50;81.50;;;;;;5054660;28;20206;-82
2023/03/29 08:39:46;;;;;;;2.10;1.50;;;2.40;80.50;;;;;;5054479;28;20180;-83
2023/03/29 08:42:20;;;;;;;1.20;1.10;;;2.40;80.00;;;;;;5055557;28;20247;-82
2023/03/29 08:45:29;;;;;;;2.97;1.80;;;2.30;77.80;;;;;;5055292;28;20180;-81
2023/03/29 08:48:01;;;;;;;2.10;1.20;;;2.30;75.90;;;;;;5052438;28;20205;-82
2023/03/29 08:50:35;;;;;;;1.83;1.57;;;2.40;76.70;;;;;;5055895;28;20606;-81
2023/03/29 08:53:11;;;;;;;3.03;1.63;;;2.50;73.60;;;;;;5054633;28;20216;-82
2023/03/29 08:55:41;;;;;;;4.33;1.73;;;2.60;72.60;;;;;;5054591;28;20621;-81
2023/03/29 08:58:13;;;;;;;1.73;1.60;;;2.70;73.70;;;;;;5054531;28;20213;-81
2023/03/29 09:00:55;;;;;;;2.43;1.87;;;2.70;72.60;;;;;;5055743;28;20211;-81
2023/03/29 09:03:38;;;;;;;1.30;1.20;;;2.50;73.40;;;;;;5055507;28;20172;-81
2023/03/29 09:06:11;;;;;;;1.43;1.27;;;2.60;72.20;;;;;;5057320;28;20307;-81
2023/03/29 09:08:51;;;;;;;3.43;1.00;;;2.70;72.10;;;;;;5058183;28;20181;-80
2023/03/29 09:11:23;;;;;;;2.80;1.30;;;2.80;72.80;;;;;;5059296;28;20169;-81
2023/03/29 09:13:55;;;;;;;1.73;0.90;;;3.00;68.30;;;;;;5061329;28;20187;-82
2023/03/29 09:16:57;;;;;;;5.93;1.70;;;3.00;68.30;;;;;;5078630;28;20176;-81
2023/03/29 09:19:29;;;;;;;1.10;1.00;;;3.00;68.90;;;;;;5079241;28;20183;-81
2023/03/29 09:22:21;;;;;;;2.23;1.37;;;3.00;66.80;;;;;;5079607;28;20190;-80
2023/03/29 09:25:04;;;;;;;2.63;1.53;;;3.00;67.30;;;;;;5067805;28;20199;-81
2023/03/29 09:27:36;;;;;;;0.70;0.70;;;3.10;68.90;;;;;;5060062;28;20356;-81
2023/03/29 09:30:03;;;;;;;3.13;1.10;;;3.20;67.30;;;;;;5073816;28;20168;-82
2023/03/29 09:32:47;;;;;;;2.17;1.53;;;3.20;69.10;;;;;;5079561;28;20158;-81
2023/03/29 09:35:25;;;;;;;1.30;1.10;;;3.50;70.20;;;;;;5078565;28;20242;-82
2023/03/29 09:37:52;;;;;;;1.17;1.07;;;3.40;67.30;;;;;;5060079;28;20203;-81
2023/03/29 09:40:26;;;;;;;1.37;1.20;;;3.40;67.90;;;;;;5054254;28;20213;-81
2023/03/29 09:42:54;;;;;;;1.20;1.10;;;3.50;66.30;;;;;;5053484;28;20191;-81
2023/03/29 09:45:20;;;;;;;1.53;1.27;;;3.70;65.90;;;;;;5053899;28;20172;-81
2023/03/29 09:47:55;;;;;;;1.30;1.17;;;3.60;60.50;;;;;;5052675;28;20699;-80
2023/03/29 09:50:37;;;;;;;1.17;1.00;;;3.70;62.40;;;;;;5052670;28;20181;-81
2023/03/29 09:53:04;;;;;;;0.83;0.83;;;3.80;62.40;;;;;;5052687;28;20180;-83
2023/03/29 09:55:32;;;;;;;1.07;1.00;;;3.70;58.70;;;;;;5053002;28;20183;-81
2023/03/29 09:58:01;;;;;;;0.77;0.77;;;3.80;59.90;;;;;;5052741;28;20183;-81
2023/03/29 10:00:27;;;;;;;1.10;1.00;;;3.80;60.70;;;;;;5053846;28;20180;-81
2023/03/29 10:02:55;;;;;;;3.03;1.40;;;3.90;59.30;;;;;;5052676;28;20198;-81
2023/03/29 10:05:24;;;;;;;2.47;1.50;;;4.10;59.80;;;;;;5052436;28;20256;-81
2023/03/29 10:07:53;;;;;;;0.83;0.83;;;4.20;60.10;;;;;;5035910;28;20676;-81
2023/03/29 10:10:28;;;;;;;1.47;1.30;;;4.20;58.10;;;;;;5054065;28;20229;-80
2023/03/29 10:12:59;;;;;;;1.67;0.93;;;4.30;58.70;;;;;;5053541;28;20572;-81
2023/03/29 10:15:28;;;;;;;1.27;0.83;;;4.40;60.80;;;;;;5053375;28;20175;-81
2023/03/29 10:18:12;;;;;;;2.40;1.63;;;4.30;59.70;;;;;;5053760;28;20223;-81
2023/03/29 10:20:39;;;;;;;1.40;1.30;;;4.50;59.90;;;;;;5052456;28;20536;-80
2023/03/29 10:23:06;;;;;;;1.27;1.13;;;4.40;58.50;;;;;;5052556;28;20211;-80
2023/03/29 10:25:39;;;;;;;1.20;1.03;;;5.00;59.40;;;;;;5053680;28;20207;-81
2023/03/29 10:28:20;;;;;;;1.13;1.13;;;4.40;58.90;;;;;;5052271;28;20183;-81
2023/03/29 10:30:53;;;;;;;1.80;1.07;;;4.30;59.30;;;;;;5053597;28;20198;-80
2023/03/29 10:33:22;;;;;;;1.03;1.03;;;4.50;58.90;;;;;;5052962;28;20163;-80
2023/03/29 10:35:49;;;;;;;1.67;1.20;;;4.60;58.10;;;;;;5053629;28;20202;-80
2023/03/29 10:38:21;;;;;;;0.70;0.70;;;4.60;55.90;;;;;;5051845;28;20193;-80
2023/03/29 10:40:52;;;;;;;1.20;1.10;;;4.60;54.90;;;;;;5053814;28;20186;-81
2023/03/29 10:43:33;;;;;;;1.20;1.10;;;4.60;56.20;;;;;;5052959;28;20591;-80
2023/03/29 10:46:22;;;;;;;2.40;1.53;;;4.80;57.00;;;;;;5053447;28;20214;-80
2023/03/29 10:48:51;;;;;;;0.73;0.73;;;4.90;57.00;;;;;;5053415;28;20251;-81
2023/03/29 10:51:18;;;;;;;0.70;0.70;;;5.00;57.50;;;;;;5053179;28;20179;-81
2023/03/29 10:53:44;;;;;;;1.60;1.13;;;5.00;58.00;;;;;;5052512;28;20186;-81
2023/03/29 10:56:38;;;;;;;0.80;0.80;;;5.10;56.90;;;;;;5051557;28;20282;-80
2023/03/29 10:59:16;;;;;;;0.80;0.80;;;5.20;57.60;;;;;;5053517;28;20671;-81
2023/03/29 11:02:13;;;;;;;1.40;0.93;;;5.20;55.80;;;;;;5052200;28;20194;-81
2023/03/29 11:04:58;;;;;;;2.70;1.93;;;5.10;57.30;;;;;;5052366;28;20183;-80
2023/03/29 11:07:30;;;;;;;2.10;1.90;;;5.20;56.70;;;;;;5053422;28;20211;-81
2023/03/29 11:10:17;;;;;;;2.23;1.30;;;5.00;56.70;;;;;;5053558;28;20172;-81
2023/03/29 11:13:20;;;;;;;2.67;1.73;;;5.10;56.70;;;;;;5051963;28;20213;-82
2023/03/29 11:16:24;;;;;;;2.77;1.50;;;5.30;56.50;;;;;;5030273;28;20210;-81
2023/03/29 11:19:37;;;;;;;1.17;1.07;;;5.60;57.30;;;;;;5052987;28;20183;-81
2023/03/29 11:22:30;;;;;;;1.57;1.00;;;5.80;57.00;;;;;;4991963;28;20260;-81
2023/03/29 11:25:10;;;;;;;0.87;0.87;;;5.70;53.00;;;;;;4975719;28;20178;-81
2023/03/29 11:28:02;;;;;;;2.77;1.27;;;6.00;55.00;;;;;;5030910;28;20246;-81
2023/03/29 11:30:31;;;;;;;1.30;1.20;;;5.80;53.40;;;;;;5038056;28;20203;-81
2023/03/29 11:33:27;;;;;;;2.53;1.03;;;5.80;51.40;;;;;;5051529;28;20226;-80
2023/03/29 11:36:01;;;;;;;0.73;0.73;;;5.70;51.10;;;;;;5051942;28;20180;-81
2023/03/29 11:38:29;;;;;;;3.03;1.37;;;5.80;52.00;;;;;;5053472;28;20160;-81
2023/03/29 11:41:17;;;;;;;1.27;1.17;;;6.00;50.70;;;;;;5053390;28;20176;-81
2023/03/29 11:44:10;;;;;;;1.93;1.20;;;6.20;50.40;;;;;;5053581;28;20196;-81
2023/03/29 11:46:45;;;;;;;1.60;1.13;;;6.20;50.80;;;;;;5052498;28;20241;-82
2023/03/29 11:49:30;;;;;;;1.00;0.90;;;6.20;49.30;;;;;;5052236;28;20218;-81
2023/03/29 11:52:00;;;;;;;1.77;1.10;;;6.00;50.00;;;;;;5051584;28;20180;-80
2023/03/29 11:54:38;;;;;;;1.27;1.17;;;5.90;48.60;;;;;;5051044;28;20205;-81
2023/03/29 11:57:29;;;;;;;1.23;1.10;;;5.80;48.40;;;;;;5053571;28;20155;-80
2023/03/29 12:00:15;;;;;;;1.33;1.20;;;6.00;49.20;;;;;;5051584;28;20621;-81
2023/03/29 12:03:05;;;;;;;1.17;1.03;;;6.20;49.10;;;;;;5037832;28;20188;-82
2023/03/29 12:05:46;;;;;;;4.60;1.00;;;6.40;47.30;;;;;;5051072;28;20178;-81
2023/03/29 12:08:20;;;;;;;2.97;0.87;;;6.20;47.50;;;;;;5053832;28;20187;-81
2023/03/29 12:10:51;;;;;;;1.50;1.00;;;6.20;47.20;;;;;;5055812;28;20160;-81
2023/03/29 12:13:27;;;;;;;1.43;1.30;;;6.40;47.70;;;;;;5056582;28;20680;-80
2023/03/29 12:16:01;;;;;;;1.23;1.00;;;6.60;47.90;;;;;;5054950;28;20236;-81
2023/03/29 12:18:31;;;;;;;2.20;1.00;;;6.70;47.20;;;;;;5054537;28;20226;-81
2023/03/29 12:21:09;;;;;;;1.50;0.83;;;6.60;45.50;;;;;;5054872;28;20182;-81
2023/03/29 12:23:35;;;;;;;3.03;0.80;;;6.70;45.40;;;;;;5055733;28;20164;-81
2023/03/29 12:26:16;;;;;;;0.87;0.87;;;6.60;45.60;;;;;;5055677;28;20555;-81
2023/03/29 12:29:16;;;;;;;0.90;0.90;;;6.70;45.40;;;;;;5054319;28;20261;-81
2023/03/29 12:32:03;;;;;;;0.80;0.80;;;6.80;44.30;;;;;;5054485;28;20271;-81
2023/03/29 12:34:58;;;;;;;1.03;0.83;;;6.70;43.20;;;;;;5055821;28;20263;-81
2023/03/29 12:38:02;;;;;;;0.70;0.70;;;7.00;44.60;;;;;;5055877;28;20180;-82
2023/03/29 12:40:39;;;;;;;1.03;0.80;;;7.10;43.00;;;;;;5054298;28;20222;-82
2023/03/29 12:43:07;;;;;;;3.80;1.67;;;7.50;44.80;;;;;;5055949;28;20160;-81
2023/03/29 12:45:47;;;;;;;2.17;1.20;;;7.30;44.30;;;;;;5054091;28;20175;-81
2023/03/29 12:48:36;;;;;;;4.17;0.80;;;7.60;45.40;;;;;;5054444;28;20179;-80
2023/03/29 12:51:04;;;;;;;1.87;1.10;;;7.60;45.70;;;;;;5055656;28;20167;-80
2023/03/29 12:53:33;;;;;;;1.10;1.00;;;8.00;45.00;;;;;;5055050;28;20176;-81
2023/03/29 12:56:02;;;;;;;1.27;0.93;;;8.40;44.10;;;;;;5053612;28;20290;-80
2023/03/29 12:58:53;;;;;;;1.37;1.00;;;8.30;43.60;;;;;;5053449;28;20579;-80
2023/03/29 13:01:37;;;;;;;0.93;0.70;;;8.30;42.50;;;;;;5054770;28;20216;-81
2023/03/29 13:04:19;;;;;;;0.70;0.70;;;8.40;42.30;;;;;;5054795;28;20164;-80
2023/03/29 13:06:47;;;;;;;1.47;0.97;;;8.30;42.40;;;;;;5054819;28;20629;-82
2023/03/29 13:09:23;;;;;;;1.87;0.97;;;8.00;43.30;;;;;;5053152;28;20722;-82
2023/03/29 13:11:54;;;;;;;0.87;0.80;;;8.10;42.90;;;;;;5054631;28;20198;-82
2023/03/29 13:14:23;;;;;;;1.50;0.80;;;8.50;40.90;;;;;;5054288;28;20598;-81
2023/03/29 13:16:49;;;;;;;1.20;0.93;;;8.60;42.10;;;;;;5054321;28;20231;-82
2023/03/29 13:19:32;;;;;;;1.63;0.90;;;9.10;42.60;;;;;;5052321;28;20640;-80
2023/03/29 13:22:38;;;;;;;3.10;1.50;;;9.10;40.00;;;;;;5053305;28;20234;-80